sensor_id;sensor_type;location;lat;lon;timestamp;pressure;altitude;pressure_sealevel;temperature;humidity
84975;BME280;75284;50.310;19.284;2024-01-15T00:01:56;96475.14;;;-0.36;74.15
84975;BME280;75284;50.310;19.284;2024-01-15T00:04:25;96465.15;;;-0.37;73.87
84975;BME280;75284;50.310;19.284;2024-01-15T00:06:55;96460.73;;;-0.36;73.90
84975;BME280;75284;50.310;19.284;2024-01-15T00:09:25;96465.81;;;-0.36;73.75
84975;BME280;75284;50.310;19.284;2024-01-15T00:11:57;96460.61;;;-0.36;73.57
84975;BME280;75284;50.310;19.284;2024-01-15T00:14:26;96454.80;;;-0.37;73.77
84975;BME280;75284;50.310;19.284;2024-01-15T00:16:56;96448.77;;;-0.38;73.72
84975;BME280;75284;50.310;19.284;2024-01-15T00:19:26;96446.14;;;-0.38;73.58
84975;BME280;75284;50.310;19.284;2024-01-15T00:21:56;96436.16;;;-0.37;73.74
84975;BME280;75284;50.310;19.284;2024-01-15T00:24:26;96431.88;;;-0.34;73.57
84975;BME280;75284;50.310;19.284;2024-01-15T00:26:58;96438.34;;;-0.35;73.68
84975;BME280;75284;50.310;19.284;2024-01-15T00:29:28;96428.45;;;-0.36;73.71
84975;BME280;75284;50.310;19.284;2024-01-15T00:31:59;96432.00;;;-0.38;73.75
84975;BME280;75284;50.310;19.284;2024-01-15T00:34:29;96427.50;;;-0.37;73.64
84975;BME280;75284;50.310;19.284;2024-01-15T00:36:58;96424.75;;;-0.35;73.75
84975;BME280;75284;50.310;19.284;2024-01-15T00:39:28;96418.55;;;-0.34;73.50
84975;BME280;75284;50.310;19.284;2024-01-15T00:41:58;96414.32;;;-0.34;73.56
84975;BME280;75284;50.310;19.284;2024-01-15T00:44:27;96409.46;;;-0.36;73.74
84975;BME280;75284;50.310;19.284;2024-01-15T00:47:01;96405.92;;;-0.37;73.23
84975;BME280;75284;50.310;19.284;2024-01-15T00:49:31;96405.05;;;-0.36;73.42
84975;BME280;75284;50.310;19.284;2024-01-15T00:52:00;96403.93;;;-0.35;73.66
84975;BME280;75284;50.310;19.284;2024-01-15T00:54:30;96406.00;;;-0.35;73.41
84975;BME280;75284;50.310;19.284;2024-01-15T00:56:59;96406.98;;;-0.37;73.35
84975;BME280;75284;50.310;19.284;2024-01-15T00:59:29;96405.89;;;-0.38;73.20
84975;BME280;75284;50.310;19.284;2024-01-15T01:01:59;96406.86;;;-0.39;73.36
84975;BME280;75284;50.310;19.284;2024-01-15T01:04:28;96401.30;;;-0.38;73.56
84975;BME280;75284;50.310;19.284;2024-01-15T01:07:02;96395.62;;;-0.38;73.54
84975;BME280;75284;50.310;19.284;2024-01-15T01:09:32;96383.46;;;-0.39;73.61
84975;BME280;75284;50.310;19.284;2024-01-15T01:12:02;96373.55;;;-0.41;73.29
84975;BME280;75284;50.310;19.284;2024-01-15T01:14:33;96368.61;;;-0.42;73.55
84975;BME280;75284;50.310;19.284;2024-01-15T01:17:02;96365.27;;;-0.41;73.47
84975;BME280;75284;50.310;19.284;2024-01-15T01:19:36;96358.27;;;-0.40;73.80
84975;BME280;75284;50.310;19.284;2024-01-15T01:22:06;96357.21;;;-0.41;73.48
84975;BME280;75284;50.310;19.284;2024-01-15T01:24:41;96353.89;;;-0.42;73.74
84975;BME280;75284;50.310;19.284;2024-01-15T01:27:13;96355.71;;;-0.46;73.71
84975;BME280;75284;50.310;19.284;2024-01-15T01:29:43;96350.92;;;-0.45;73.78
84975;BME280;75284;50.310;19.284;2024-01-15T01:32:12;96345.77;;;-0.44;73.81
84975;BME280;75284;50.310;19.284;2024-01-15T01:34:43;96345.08;;;-0.42;73.65
84975;BME280;75284;50.310;19.284;2024-01-15T01:37:12;96340.10;;;-0.42;73.56
84975;BME280;75284;50.310;19.284;2024-01-15T01:39:45;96339.56;;;-0.43;73.62
84975;BME280;75284;50.310;19.284;2024-01-15T01:42:15;96337.74;;;-0.45;73.96
84975;BME280;75284;50.310;19.284;2024-01-15T01:44:48;96328.36;;;-0.46;73.59
84975;BME280;75284;50.310;19.284;2024-01-15T01:47:18;96333.48;;;-0.44;73.78
84975;BME280;75284;50.310;19.284;2024-01-15T01:49:48;96326.83;;;-0.43;74.02
84975;BME280;75284;50.310;19.284;2024-01-15T01:52:18;96326.46;;;-0.43;73.67
84975;BME280;75284;50.310;19.284;2024-01-15T01:54:47;96323.66;;;-0.44;73.53
84975;BME280;75284;50.310;19.284;2024-01-15T01:57:18;96321.32;;;-0.43;73.23
84975;BME280;75284;50.310;19.284;2024-01-15T01:59:48;96315.23;;;-0.43;73.67
84975;BME280;75284;50.310;19.284;2024-01-15T02:02:19;96309.35;;;-0.41;73.61
84975;BME280;75284;50.310;19.284;2024-01-15T02:04:50;96303.91;;;-0.41;73.70
84975;BME280;75284;50.310;19.284;2024-01-15T02:07:20;96290.48;;;-0.43;73.85
84975;BME280;75284;50.310;19.284;2024-01-15T02:09:50;96300.75;;;-0.45;73.64
84975;BME280;75284;50.310;19.284;2024-01-15T02:12:20;96297.98;;;-0.44;73.41
84975;BME280;75284;50.310;19.284;2024-01-15T02:14:50;96297.88;;;-0.42;73.14
84975;BME280;75284;50.310;19.284;2024-01-15T02:17:19;96294.27;;;-0.40;72.75
84975;BME280;75284;50.310;19.284;2024-01-15T02:19:50;96296.61;;;-0.39;72.53
84975;BME280;75284;50.310;19.284;2024-01-15T02:22:20;96296.23;;;-0.40;72.89
84975;BME280;75284;50.310;19.284;2024-01-15T02:24:49;96291.05;;;-0.42;72.16
84975;BME280;75284;50.310;19.284;2024-01-15T02:27:19;96295.31;;;-0.41;72.20
84975;BME280;75284;50.310;19.284;2024-01-15T02:29:50;96288.29;;;-0.40;72.07
84975;BME280;75284;50.310;19.284;2024-01-15T02:32:20;96284.60;;;-0.40;71.88
84975;BME280;75284;50.310;19.284;2024-01-15T02:34:49;96279.61;;;-0.40;71.82
84975;BME280;75284;50.310;19.284;2024-01-15T02:37:19;96275.40;;;-0.43;71.91
84975;BME280;75284;50.310;19.284;2024-01-15T02:39:50;96273.09;;;-0.45;71.60
84975;BME280;75284;50.310;19.284;2024-01-15T02:42:19;96276.62;;;-0.46;71.04
84975;BME280;75284;50.310;19.284;2024-01-15T02:44:49;96272.97;;;-0.45;71.10
84975;BME280;75284;50.310;19.284;2024-01-15T02:47:19;96264.81;;;-0.44;71.07
84975;BME280;75284;50.310;19.284;2024-01-15T02:49:48;96255.12;;;-0.45;71.00
84975;BME280;75284;50.310;19.284;2024-01-15T02:52:20;96252.09;;;-0.47;70.71
84975;BME280;75284;50.310;19.284;2024-01-15T02:54:49;96242.24;;;-0.50;71.00
84975;BME280;75284;50.310;19.284;2024-01-15T02:57:19;96250.70;;;-0.51;71.02
84975;BME280;75284;50.310;19.284;2024-01-15T02:59:49;96239.71;;;-0.52;70.55
84975;BME280;75284;50.310;19.284;2024-01-15T03:02:18;96233.35;;;-0.53;70.43
84975;BME280;75284;50.310;19.284;2024-01-15T03:04:48;96228.41;;;-0.54;70.32
84975;BME280;75284;50.310;19.284;2024-01-15T03:07:18;96230.76;;;-0.55;69.99
84975;BME280;75284;50.310;19.284;2024-01-15T03:09:47;96224.03;;;-0.56;70.19
84975;BME280;75284;50.310;19.284;2024-01-15T03:12:17;96219.22;;;-0.57;69.99
84975;BME280;75284;50.310;19.284;2024-01-15T03:14:47;96213.24;;;-0.56;70.28
84975;BME280;75284;50.310;19.284;2024-01-15T03:17:17;96207.29;;;-0.55;70.00
84975;BME280;75284;50.310;19.284;2024-01-15T03:19:46;96205.30;;;-0.57;70.07
84975;BME280;75284;50.310;19.284;2024-01-15T03:22:20;96197.55;;;-0.58;70.06
84975;BME280;75284;50.310;19.284;2024-01-15T03:24:50;96200.08;;;-0.59;70.09
84975;BME280;75284;50.310;19.284;2024-01-15T03:27:19;96204.67;;;-0.59;69.84
84975;BME280;75284;50.310;19.284;2024-01-15T03:29:49;96200.44;;;-0.57;69.72
84975;BME280;75284;50.310;19.284;2024-01-15T03:32:18;96195.80;;;-0.52;69.45
84975;BME280;75284;50.310;19.284;2024-01-15T03:34:49;96200.23;;;-0.51;69.54
84975;BME280;75284;50.310;19.284;2024-01-15T03:37:18;96196.02;;;-0.52;69.13
84975;BME280;75284;50.310;19.284;2024-01-15T03:39:49;96187.49;;;-0.52;69.55
84975;BME280;75284;50.310;19.284;2024-01-15T03:42:18;96188.71;;;-0.54;69.31
84975;BME280;75284;50.310;19.284;2024-01-15T03:44:48;96181.20;;;-0.53;68.98
84975;BME280;75284;50.310;19.284;2024-01-15T03:47:17;96179.54;;;-0.52;69.23
84975;BME280;75284;50.310;19.284;2024-01-15T03:49:47;96174.60;;;-0.51;69.16
84975;BME280;75284;50.310;19.284;2024-01-15T03:52:19;96163.27;;;-0.52;69.17
84975;BME280;75284;50.310;19.284;2024-01-15T03:54:48;96161.21;;;-0.53;69.09
84975;BME280;75284;50.310;19.284;2024-01-15T03:57:18;96154.29;;;-0.54;68.95
84975;BME280;75284;50.310;19.284;2024-01-15T03:59:47;96152.55;;;-0.58;68.97
84975;BME280;75284;50.310;19.284;2024-01-15T04:02:17;96154.65;;;-0.58;69.18
84975;BME280;75284;50.310;19.284;2024-01-15T04:04:46;96153.91;;;-0.56;69.14
84975;BME280;75284;50.310;19.284;2024-01-15T04:07:16;96161.54;;;-0.55;69.27
84975;BME280;75284;50.310;19.284;2024-01-15T04:09:45;96161.99;;;-0.56;68.53
84975;BME280;75284;50.310;19.284;2024-01-15T04:12:15;96166.10;;;-0.56;69.13
84975;BME280;75284;50.310;19.284;2024-01-15T04:14:45;96164.79;;;-0.58;69.56
84975;BME280;75284;50.310;19.284;2024-01-15T04:17:14;96162.53;;;-0.61;69.32
84975;BME280;75284;50.310;19.284;2024-01-15T04:19:46;96155.77;;;-0.60;69.17
84975;BME280;75284;50.310;19.284;2024-01-15T04:22:17;96158.88;;;-0.59;69.03
84975;BME280;75284;50.310;19.284;2024-01-15T04:24:47;96159.27;;;-0.58;69.35
84975;BME280;75284;50.310;19.284;2024-01-15T04:27:16;96151.93;;;-0.58;69.24
84975;BME280;75284;50.310;19.284;2024-01-15T04:29:46;96154.30;;;-0.60;69.11
84975;BME280;75284;50.310;19.284;2024-01-15T04:32:20;96150.78;;;-0.60;69.15
84975;BME280;75284;50.310;19.284;2024-01-15T04:34:49;96154.50;;;-0.60;69.03
84975;BME280;75284;50.310;19.284;2024-01-15T04:37:19;96145.45;;;-0.58;69.00
84975;BME280;75284;50.310;19.284;2024-01-15T04:39:48;96148.61;;;-0.56;68.89
84975;BME280;75284;50.310;19.284;2024-01-15T04:42:18;96147.02;;;-0.56;68.97
84975;BME280;75284;50.310;19.284;2024-01-15T04:44:47;96142.58;;;-0.57;68.79
84975;BME280;75284;50.310;19.284;2024-01-15T04:47:17;96148.28;;;-0.59;68.94
84975;BME280;75284;50.310;19.284;2024-01-15T04:49:47;96144.24;;;-0.60;69.18
84975;BME280;75284;50.310;19.284;2024-01-15T04:52:20;96140.52;;;-0.61;69.26
84975;BME280;75284;50.310;19.284;2024-01-15T04:54:50;96142.63;;;-0.61;69.51
84975;BME280;75284;50.310;19.284;2024-01-15T04:57:19;96144.69;;;-0.59;69.26
84975;BME280;75284;50.310;19.284;2024-01-15T04:59:51;96142.52;;;-0.57;69.20
84975;BME280;75284;50.310;19.284;2024-01-15T05:02:21;96138.27;;;-0.59;69.06
84975;BME280;75284;50.310;19.284;2024-01-15T05:04:50;96140.55;;;-0.60;69.25
84975;BME280;75284;50.310;19.284;2024-01-15T05:07:20;96145.49;;;-0.61;69.54
84975;BME280;75284;50.310;19.284;2024-01-15T05:09:49;96149.08;;;-0.63;69.30
84975;BME280;75284;50.310;19.284;2024-01-15T05:12:19;96145.26;;;-0.63;69.20
84975;BME280;75284;50.310;19.284;2024-01-15T05:14:48;96138.61;;;-0.62;69.51
84975;BME280;75284;50.310;19.284;2024-01-15T05:17:18;96137.72;;;-0.63;69.61
84975;BME280;75284;50.310;19.284;2024-01-15T05:19:48;96128.55;;;-0.63;69.39
84975;BME280;75284;50.310;19.284;2024-01-15T05:22:17;96119.65;;;-0.65;69.76
84975;BME280;75284;50.310;19.284;2024-01-15T05:24:47;96119.94;;;-0.67;69.49
84975;BME280;75284;50.310;19.284;2024-01-15T05:27:17;96128.38;;;-0.67;69.62
84975;BME280;75284;50.310;19.284;2024-01-15T05:29:51;96123.14;;;-0.65;69.65
84975;BME280;75284;50.310;19.284;2024-01-15T05:32:20;96120.77;;;-0.64;69.45
84975;BME280;75284;50.310;19.284;2024-01-15T05:34:50;96114.62;;;-0.65;69.75
84975;BME280;75284;50.310;19.284;2024-01-15T05:37:19;96120.70;;;-0.67;69.91
84975;BME280;75284;50.310;19.284;2024-01-15T05:39:49;96118.40;;;-0.70;70.00
84975;BME280;75284;50.310;19.284;2024-01-15T05:42:18;96125.38;;;-0.70;69.66
84975;BME280;75284;50.310;19.284;2024-01-15T05:44:48;96122.06;;;-0.68;69.95
84975;BME280;75284;50.310;19.284;2024-01-15T05:47:18;96123.88;;;-0.69;69.52
84975;BME280;75284;50.310;19.284;2024-01-15T05:49:48;96118.81;;;-0.70;69.81
84975;BME280;75284;50.310;19.284;2024-01-15T05:52:18;96115.04;;;-0.72;69.91
84975;BME280;75284;50.310;19.284;2024-01-15T05:54:47;96119.66;;;-0.73;69.84
84975;BME280;75284;50.310;19.284;2024-01-15T05:57:17;96114.92;;;-0.71;69.72
84975;BME280;75284;50.310;19.284;2024-01-15T05:59:47;96121.20;;;-0.70;70.10
84975;BME280;75284;50.310;19.284;2024-01-15T06:02:17;96118.48;;;-0.69;69.86
84975;BME280;75284;50.310;19.284;2024-01-15T06:04:46;96120.76;;;-0.70;69.99
84975;BME280;75284;50.310;19.284;2024-01-15T06:07:16;96123.97;;;-0.72;70.12
84975;BME280;75284;50.310;19.284;2024-01-15T06:09:45;96125.66;;;-0.73;70.04
84975;BME280;75284;50.310;19.284;2024-01-15T06:12:15;96120.35;;;-0.73;69.93
84975;BME280;75284;50.310;19.284;2024-01-15T06:14:44;96120.97;;;-0.71;70.09
84975;BME280;75284;50.310;19.284;2024-01-15T06:17:14;96122.02;;;-0.72;70.06
84975;BME280;75284;50.310;19.284;2024-01-15T06:19:44;96116.42;;;-0.72;69.93
84975;BME280;75284;50.310;19.284;2024-01-15T06:22:16;96113.27;;;-0.73;70.27
84975;BME280;75284;50.310;19.284;2024-01-15T06:24:45;96119.84;;;-0.74;70.02
84975;BME280;75284;50.310;19.284;2024-01-15T06:27:15;96119.14;;;-0.73;70.06
84975;BME280;75284;50.310;19.284;2024-01-15T06:29:46;96123.36;;;-0.71;70.10
84975;BME280;75284;50.310;19.284;2024-01-15T06:32:22;96125.02;;;-0.72;70.21
84975;BME280;75284;50.310;19.284;2024-01-15T06:34:52;96128.66;;;-0.73;69.99
84975;BME280;75284;50.310;19.284;2024-01-15T06:37:22;96127.94;;;-0.73;70.33
84975;BME280;75284;50.310;19.284;2024-01-15T06:39:52;96127.02;;;-0.74;70.29
84975;BME280;75284;50.310;19.284;2024-01-15T06:42:26;96128.46;;;-0.73;70.32
84975;BME280;75284;50.310;19.284;2024-01-15T06:44:56;96129.40;;;-0.70;70.01
84975;BME280;75284;50.310;19.284;2024-01-15T06:47:25;96130.40;;;-0.69;69.85
84975;BME280;75284;50.310;19.284;2024-01-15T06:49:55;96135.23;;;-0.68;69.62
84975;BME280;75284;50.310;19.284;2024-01-15T06:52:25;96138.75;;;-0.67;69.34
84975;BME280;75284;50.310;19.284;2024-01-15T06:54:54;96142.67;;;-0.66;69.93
84975;BME280;75284;50.310;19.284;2024-01-15T06:57:24;96147.66;;;-0.67;69.71
84975;BME280;75284;50.310;19.284;2024-01-15T06:59:53;96150.35;;;-0.66;69.80
84975;BME280;75284;50.310;19.284;2024-01-15T07:02:23;96153.09;;;-0.64;69.95
84975;BME280;75284;50.310;19.284;2024-01-15T07:04:52;96155.20;;;-0.63;69.49
84975;BME280;75284;50.310;19.284;2024-01-15T07:07:22;96161.61;;;-0.63;69.55
84975;BME280;75284;50.310;19.284;2024-01-15T07:09:51;96167.61;;;-0.63;69.54
84975;BME280;75284;50.310;19.284;2024-01-15T07:12:21;96164.80;;;-0.64;69.38
84975;BME280;75284;50.310;19.284;2024-01-15T07:14:51;96173.27;;;-0.64;69.40
84975;BME280;75284;50.310;19.284;2024-01-15T07:17:24;96175.84;;;-0.62;69.45
84975;BME280;75284;50.310;19.284;2024-01-15T07:19:54;96177.41;;;-0.59;69.47
84975;BME280;75284;50.310;19.284;2024-01-15T07:22:23;96183.48;;;-0.58;69.32
84975;BME280;75284;50.310;19.284;2024-01-15T07:24:53;96182.75;;;-0.56;69.27
84975;BME280;75284;50.310;19.284;2024-01-15T07:27:23;96187.37;;;-0.55;69.35
84975;BME280;75284;50.310;19.284;2024-01-15T07:29:53;96192.08;;;-0.54;69.27
84975;BME280;75284;50.310;19.284;2024-01-15T07:32:23;96193.95;;;-0.54;69.36
84975;BME280;75284;50.310;19.284;2024-01-15T07:34:52;96189.60;;;-0.52;69.47
84975;BME280;75284;50.310;19.284;2024-01-15T07:37:22;96190.69;;;-0.48;69.66
84975;BME280;75284;50.310;19.284;2024-01-15T07:39:52;96189.50;;;-0.45;69.29
84975;BME280;75284;50.310;19.284;2024-01-15T07:42:22;96186.98;;;-0.42;69.14
84975;BME280;75284;50.310;19.284;2024-01-15T07:44:55;96188.60;;;-0.42;69.03
84975;BME280;75284;50.310;19.284;2024-01-15T07:47:25;96184.71;;;-0.44;69.07
84975;BME280;75284;50.310;19.284;2024-01-15T07:49:55;96183.90;;;-0.46;68.83
84975;BME280;75284;50.310;19.284;2024-01-15T07:52:25;96183.54;;;-0.46;68.73
84975;BME280;75284;50.310;19.284;2024-01-15T07:54:54;96178.38;;;-0.40;68.47
84975;BME280;75284;50.310;19.284;2024-01-15T07:57:24;96179.41;;;-0.34;67.98
84975;BME280;75284;50.310;19.284;2024-01-15T07:59:54;96195.67;;;-0.31;68.10
84975;BME280;75284;50.310;19.284;2024-01-15T08:02:23;96194.85;;;-0.31;67.77
84975;BME280;75284;50.310;19.284;2024-01-15T08:04:55;96198.92;;;-0.33;67.98
84975;BME280;75284;50.310;19.284;2024-01-15T08:07:25;96207.20;;;-0.36;68.07
84975;BME280;75284;50.310;19.284;2024-01-15T08:09:55;96202.41;;;-0.38;68.21
84975;BME280;75284;50.310;19.284;2024-01-15T08:12:24;96202.70;;;-0.37;68.10
84975;BME280;75284;50.310;19.284;2024-01-15T08:14:54;96211.95;;;-0.37;67.92
84975;BME280;75284;50.310;19.284;2024-01-15T08:17:27;96219.69;;;-0.34;68.36
84975;BME280;75284;50.310;19.284;2024-01-15T08:19:58;96218.65;;;-0.33;68.36
84975;BME280;75284;50.310;19.284;2024-01-15T08:22:32;96224.19;;;-0.31;68.91
84975;BME280;75284;50.310;19.284;2024-01-15T08:25:02;96230.86;;;-0.29;69.44
84975;BME280;75284;50.310;19.284;2024-01-15T08:27:32;96234.97;;;-0.28;71.32
84975;BME280;75284;50.310;19.284;2024-01-15T08:30:01;96233.38;;;-0.24;72.79
84975;BME280;75284;50.310;19.284;2024-01-15T08:32:32;96230.33;;;-0.22;74.02
84975;BME280;75284;50.310;19.284;2024-01-15T08:35:01;96221.60;;;-0.20;74.43
84975;BME280;75284;50.310;19.284;2024-01-15T08:37:33;96219.14;;;-0.11;74.50
84975;BME280;75284;50.310;19.284;2024-01-15T08:40:04;96223.12;;;-0.00;73.67
84975;BME280;75284;50.310;19.284;2024-01-15T08:42:34;96218.40;;;0.11;72.85
84975;BME280;75284;50.310;19.284;2024-01-15T08:45:05;96221.00;;;0.19;71.52
84975;BME280;75284;50.310;19.284;2024-01-15T08:47:34;96213.41;;;0.20;70.34
84975;BME280;75284;50.310;19.284;2024-01-15T08:50:06;96214.15;;;0.19;68.97
84975;BME280;75284;50.310;19.284;2024-01-15T08:52:39;96220.48;;;0.18;68.44
84975;BME280;75284;50.310;19.284;2024-01-15T08:55:09;96220.95;;;0.18;68.07
84975;BME280;75284;50.310;19.284;2024-01-15T08:57:38;96226.29;;;0.18;67.96
84975;BME280;75284;50.310;19.284;2024-01-15T09:00:14;96228.89;;;0.17;68.36
84975;BME280;75284;50.310;19.284;2024-01-15T09:02:45;96226.14;;;0.22;68.81
84975;BME280;75284;50.310;19.284;2024-01-15T09:05:15;96228.91;;;0.30;69.32
84975;BME280;75284;50.310;19.284;2024-01-15T09:07:44;96236.98;;;0.39;69.65
84975;BME280;75284;50.310;19.284;2024-01-15T09:10:19;96244.42;;;0.40;69.68
84975;BME280;75284;50.310;19.284;2024-01-15T09:12:52;96246.52;;;0.34;69.98
84975;BME280;75284;50.310;19.284;2024-01-15T09:15:22;96240.18;;;0.25;70.46
84975;BME280;75284;50.310;19.284;2024-01-15T09:17:51;96236.59;;;0.21;70.63
84975;BME280;75284;50.310;19.284;2024-01-15T09:20:22;96239.96;;;0.19;71.21
84975;BME280;75284;50.310;19.284;2024-01-15T09:22:52;96237.34;;;0.17;70.82
84975;BME280;75284;50.310;19.284;2024-01-15T09:25:22;96242.83;;;0.14;70.69
84975;BME280;75284;50.310;19.284;2024-01-15T09:28:17;96240.84;;;0.15;70.50
84975;BME280;75284;50.310;19.284;2024-01-15T09:30:46;96242.67;;;0.22;70.28
84975;BME280;75284;50.310;19.284;2024-01-15T09:33:16;96254.73;;;0.32;69.60
84975;BME280;75284;50.310;19.284;2024-01-15T09:35:46;96247.76;;;0.39;69.23
84975;BME280;75284;50.310;19.284;2024-01-15T09:38:16;96247.11;;;0.39;69.03
84975;BME280;75284;50.310;19.284;2024-01-15T09:40:48;96235.20;;;0.38;68.70
84975;BME280;75284;50.310;19.284;2024-01-15T09:43:18;96225.58;;;0.42;68.50
84975;BME280;75284;50.310;19.284;2024-01-15T09:45:48;96221.16;;;0.52;68.30
84975;BME280;75284;50.310;19.284;2024-01-15T09:48:21;96221.98;;;0.70;67.34
84975;BME280;75284;50.310;19.284;2024-01-15T09:50:51;96222.26;;;0.95;65.99
84975;BME280;75284;50.310;19.284;2024-01-15T09:53:22;96214.00;;;1.20;64.22
84975;BME280;75284;50.310;19.284;2024-01-15T09:55:54;96219.09;;;1.48;63.30
84975;BME280;75284;50.310;19.284;2024-01-15T09:58:23;96213.86;;;1.79;62.13
84975;BME280;75284;50.310;19.284;2024-01-15T10:00:54;96201.64;;;1.87;61.71
84975;BME280;75284;50.310;19.284;2024-01-15T10:03:24;96198.50;;;1.72;61.07
84975;BME280;75284;50.310;19.284;2024-01-15T10:05:54;96204.23;;;1.54;61.35
84975;BME280;75284;50.310;19.284;2024-01-15T10:08:24;96204.23;;;1.44;61.61
84975;BME280;75284;50.310;19.284;2024-01-15T10:10:54;96200.66;;;1.48;61.47
84975;BME280;75284;50.310;19.284;2024-01-15T10:13:24;96197.08;;;1.56;61.26
84975;BME280;75284;50.310;19.284;2024-01-15T10:15:55;96199.09;;;1.59;60.90
84975;BME280;75284;50.310;19.284;2024-01-15T10:18:24;96192.25;;;1.55;60.58
84975;BME280;75284;50.310;19.284;2024-01-15T10:20:54;96201.05;;;1.62;60.54
84975;BME280;75284;50.310;19.284;2024-01-15T10:23:24;96199.14;;;1.78;60.19
84975;BME280;75284;50.310;19.284;2024-01-15T10:25:54;96194.07;;;1.95;59.36
84975;BME280;75284;50.310;19.284;2024-01-15T10:28:27;96193.37;;;2.02;58.66
84975;BME280;75284;50.310;19.284;2024-01-15T10:31:00;96197.76;;;1.96;58.59
84975;BME280;75284;50.310;19.284;2024-01-15T10:33:30;96195.98;;;1.93;59.10
84975;BME280;75284;50.310;19.284;2024-01-15T10:36:01;96201.61;;;2.03;58.84
84975;BME280;75284;50.310;19.284;2024-01-15T10:38:31;96194.77;;;2.17;58.79
84975;BME280;75284;50.310;19.284;2024-01-15T10:41:01;96192.90;;;2.33;58.31
84975;BME280;75284;50.310;19.284;2024-01-15T10:43:31;96203.02;;;2.35;58.11
84975;BME280;75284;50.310;19.284;2024-01-15T10:46:01;96202.85;;;2.25;57.60
84975;BME280;75284;50.310;19.284;2024-01-15T10:48:30;96210.04;;;2.20;57.85
84975;BME280;75284;50.310;19.284;2024-01-15T10:51:01;96208.30;;;2.22;57.51
84975;BME280;75284;50.310;19.284;2024-01-15T10:53:33;96207.86;;;2.32;56.83
84975;BME280;75284;50.310;19.284;2024-01-15T10:56:05;96198.27;;;2.59;56.48
84975;BME280;75284;50.310;19.284;2024-01-15T10:58:37;96194.65;;;2.79;56.28
84975;BME280;75284;50.310;19.284;2024-01-15T11:01:10;96190.23;;;2.93;55.80
84975;BME280;75284;50.310;19.284;2024-01-15T11:03:40;96191.65;;;2.97;55.40
84975;BME280;75284;50.310;19.284;2024-01-15T11:06:19;96188.72;;;2.96;55.36
84975;BME280;75284;50.310;19.284;2024-01-15T11:08:49;96186.85;;;2.83;55.55
84975;BME280;75284;50.310;19.284;2024-01-15T11:11:19;96186.40;;;2.55;55.80
84975;BME280;75284;50.310;19.284;2024-01-15T11:13:54;96189.86;;;2.27;56.47
84975;BME280;75284;50.310;19.284;2024-01-15T11:16:25;96190.38;;;2.06;57.82
84975;BME280;75284;50.310;19.284;2024-01-15T11:19:15;96187.10;;;1.90;58.35
84975;BME280;75284;50.310;19.284;2024-01-15T11:21:48;96181.77;;;1.80;58.98
84975;BME280;75284;50.310;19.284;2024-01-15T11:24:36;96179.34;;;1.76;58.64
84975;BME280;75284;50.310;19.284;2024-01-15T11:27:06;96183.78;;;1.76;58.55
84975;BME280;75284;50.310;19.284;2024-01-15T11:29:37;96179.10;;;1.75;58.38
84975;BME280;75284;50.310;19.284;2024-01-15T11:32:09;96175.65;;;1.75;58.01
84975;BME280;75284;50.310;19.284;2024-01-15T11:34:56;96177.52;;;1.71;58.36
84975;BME280;75284;50.310;19.284;2024-01-15T11:37:57;96180.73;;;1.64;58.70
84975;BME280;75284;50.310;19.284;2024-01-15T11:40:39;96178.19;;;1.58;58.90
84975;BME280;75284;50.310;19.284;2024-01-15T11:43:09;96176.29;;;1.60;58.86
84975;BME280;75284;50.310;19.284;2024-01-15T11:45:40;96174.95;;;1.63;59.43
84975;BME280;75284;50.310;19.284;2024-01-15T11:48:17;96177.06;;;1.63;59.21
84975;BME280;75284;50.310;19.284;2024-01-15T11:50:48;96173.22;;;1.58;59.40
84975;BME280;75284;50.310;19.284;2024-01-15T11:53:25;96178.98;;;1.48;59.46
84975;BME280;75284;50.310;19.284;2024-01-15T11:55:59;96174.59;;;1.32;59.36
84975;BME280;75284;50.310;19.284;2024-01-15T11:58:31;96180.42;;;1.17;59.73
84975;BME280;75284;50.310;19.284;2024-01-15T12:01:01;96180.20;;;1.05;60.44
84975;BME280;75284;50.310;19.284;2024-01-15T12:03:33;96178.30;;;0.92;60.14
84975;BME280;75284;50.310;19.284;2024-01-15T12:06:07;96182.20;;;0.82;60.78
84975;BME280;75284;50.310;19.284;2024-01-15T12:08:37;96186.50;;;0.72;61.04
84975;BME280;75284;50.310;19.284;2024-01-15T12:11:10;96188.36;;;0.62;61.31
84975;BME280;75284;50.310;19.284;2024-01-15T12:13:40;96186.42;;;0.53;61.86
84975;BME280;75284;50.310;19.284;2024-01-15T12:16:11;96187.27;;;0.47;62.22
84975;BME280;75284;50.310;19.284;2024-01-15T12:18:42;96181.05;;;0.41;62.28
84975;BME280;75284;50.310;19.284;2024-01-15T12:21:12;96182.14;;;0.36;62.33
84975;BME280;75284;50.310;19.284;2024-01-15T12:23:45;96185.02;;;0.30;62.77
84975;BME280;75284;50.310;19.284;2024-01-15T12:26:15;96188.51;;;0.22;63.16
84975;BME280;75284;50.310;19.284;2024-01-15T12:28:45;96185.72;;;0.21;63.47
84975;BME280;75284;50.310;19.284;2024-01-15T12:31:14;96184.29;;;0.21;63.14
84975;BME280;75284;50.310;19.284;2024-01-15T12:33:44;96172.03;;;0.21;63.30
84975;BME280;75284;50.310;19.284;2024-01-15T12:36:15;96176.45;;;0.23;63.46
84975;BME280;75284;50.310;19.284;2024-01-15T12:38:49;96178.91;;;0.24;63.96
84975;BME280;75284;50.310;19.284;2024-01-15T12:41:19;96177.14;;;0.23;63.51
84975;BME280;75284;50.310;19.284;2024-01-15T12:43:49;96180.60;;;0.22;63.61
84975;BME280;75284;50.310;19.284;2024-01-15T12:46:19;96179.19;;;0.20;63.64
84975;BME280;75284;50.310;19.284;2024-01-15T12:48:49;96182.64;;;0.16;63.83
84975;BME280;75284;50.310;19.284;2024-01-15T12:51:18;96193.96;;;0.13;63.86
84975;BME280;75284;50.310;19.284;2024-01-15T12:53:53;96195.10;;;0.10;63.88
84975;BME280;75284;50.310;19.284;2024-01-15T12:56:23;96190.88;;;0.12;64.00
84975;BME280;75284;50.310;19.284;2024-01-15T12:58:52;96187.66;;;0.15;63.76
84975;BME280;75284;50.310;19.284;2024-01-15T13:01:22;96193.17;;;0.17;63.78
84975;BME280;75284;50.310;19.284;2024-01-15T13:03:52;96197.55;;;0.18;63.85
84975;BME280;75284;50.310;19.284;2024-01-15T13:06:22;96198.84;;;0.19;63.97
84975;BME280;75284;50.310;19.284;2024-01-15T13:08:51;96196.84;;;0.19;63.59
84975;BME280;75284;50.310;19.284;2024-01-15T13:11:21;96192.25;;;0.21;63.60